Time;durP1;ratioP1;P1;durP2;ratioP2;P2;SDS_P1;SDS_P2;PMS_P1;PMS_P2;Temp;Humidity;BMP_temperature;BMP_pressure;BME280_temperature;BME280_humidity;BME280_pressure;Samples;Min_cycle;Max_cycle;Signal;HPM_P1;HPM_P2
2023/04/09 00:01:26;;;;;;;16.17;10.63;;;;;;;11.59;91.97;101180.00;4935125;29;20054;-76
2023/04/09 00:03:54;;;;;;;18.35;11.50;;;;;;;11.59;91.74;101188.22;4918453;29;20036;-76
2023/04/09 00:06:22;;;;;;;20.77;11.10;;;;;;;11.61;93.17;101185.22;4935210;29;20063;-76
2023/04/09 00:08:50;;;;;;;16.02;11.45;;;;;;;11.61;91.57;101182.47;4935347;29;20407;-76
2023/04/09 00:11:18;;;;;;;19.40;11.80;;;;;;;11.62;92.54;101184.13;4933874;29;20495;-76
2023/04/09 00:13:46;;;;;;;18.58;11.73;;;;;;;11.66;91.63;101185.22;4935248;29;20051;-76
2023/04/09 00:16:14;;;;;;;15.48;10.60;;;;;;;11.83;90.49;101185.78;4935386;29;20051;-77
2023/04/09 00:18:41;;;;;;;17.27;11.65;;;;;;;11.91;90.62;101180.84;4935140;29;20505;-78
2023/04/09 00:21:10;;;;;;;14.73;10.10;;;;;;;11.80;92.45;101174.56;4934745;29;20491;-78
2023/04/09 00:23:37;;;;;;;17.73;10.73;;;;;;;11.70;94.08;101178.09;4935303;29;20044;-78
2023/04/09 00:26:07;;;;;;;13.68;9.60;;;;;;;11.63;94.65;101188.53;4952317;29;20134;-78
2023/04/09 00:28:35;;;;;;;16.45;9.30;;;;;;;11.38;98.03;101185.47;4954577;29;20046;-77
2023/04/09 00:31:05;;;;;;;16.20;9.82;;;;;;;11.22;98.81;101179.13;4927316;29;20073;-77
2023/04/09 00:33:33;;;;;;;17.60;10.20;;;;;;;11.20;100.00;101183.22;4933739;29;20051;-77
2023/04/09 00:36:01;;;;;;;14.70;9.13;;;;;;;11.22;98.23;101184.59;4935017;29;20044;-77
2023/04/09 00:38:29;;;;;;;14.25;9.15;;;;;;;11.09;100.00;101188.66;4935127;29;20044;-77
2023/04/09 00:40:57;;;;;;;11.18;8.27;;;;;;;10.90;100.00;101196.50;4934545;29;20048;-77
2023/04/09 00:43:25;;;;;;;13.18;9.00;;;;;;;10.96;100.00;101189.16;4933669;29;20051;-77
2023/04/09 00:45:54;;;;;;;14.00;9.20;;;;;;;11.08;100.00;101183.44;4934900;29;20051;-77
2023/04/09 00:48:22;;;;;;;11.07;8.00;;;;;;;10.96;100.00;101170.78;4935309;29;20399;-77
2023/04/09 00:50:50;;;;;;;13.02;8.45;;;;;;;10.94;100.00;101167.50;4933618;29;20048;-77
2023/04/09 00:53:19;;;;;;;14.52;9.60;;;;;;;11.04;100.00;101163.97;4935040;29;20062;-77
2023/04/09 00:55:47;;;;;;;12.70;8.50;;;;;;;11.15;100.00;101164.84;4935168;29;20059;-77
2023/04/09 00:58:14;;;;;;;11.70;8.10;;;;;;;11.27;100.00;101168.19;4935111;29;20419;-77
2023/04/09 01:00:42;;;;;;;11.98;8.13;;;;;;;11.24;100.00;101167.91;4934711;29;20044;-77
2023/04/09 01:03:10;;;;;;;12.43;8.93;;;;;;;11.23;100.00;101177.19;4935035;29;20039;-77
2023/04/09 01:06:07;;;;;;;9.98;8.20;;;;;;;10.91;100.00;101170.81;4935074;29;20044;-77
2023/04/09 01:09:06;;;;;;;12.63;9.38;;;;;;;10.89;100.00;101189.38;4935083;29;20051;-77
2023/04/09 01:11:55;;;;;;;17.40;10.45;;;;;;;10.81;100.00;101184.44;4932546;29;20058;-77
2023/04/09 01:14:29;;;;;;;13.93;9.88;;;;;;;10.78;100.00;101193.16;4934683;29;20090;-77
2023/04/09 01:17:10;;;;;;;14.02;8.63;;;;;;;10.70;100.00;101184.38;4920958;29;20483;-77
2023/04/09 01:19:41;;;;;;;13.35;9.38;;;;;;;10.75;100.00;101198.09;4899846;29;20404;-77
2023/04/09 01:22:28;;;;;;;16.92;9.85;;;;;;;10.77;100.00;101191.53;4899118;29;20048;-77
2023/04/09 01:25:27;;;;;;;16.58;9.77;;;;;;;10.86;100.00;101200.91;4914954;29;20044;-77
2023/04/09 01:28:04;;;;;;;14.23;9.45;;;;;;;10.75;100.00;101209.03;4896709;29;20060;-77
2023/04/09 01:30:32;;;;;;;12.35;8.48;;;;;;;10.70;100.00;101208.22;4913931;29;20052;-77
2023/04/09 01:33:02;;;;;;;12.13;8.35;;;;;;;10.52;100.00;101214.94;4917630;29;20056;-78
2023/04/09 01:35:30;;;;;;;16.42;8.27;;;;;;;10.67;100.00;101209.56;4919527;29;20064;-77
2023/04/09 01:37:59;;;;;;;11.57;7.65;;;;;;;10.77;100.00;101216.16;4919557;29;20052;-77
2023/04/09 01:40:27;;;;;;;8.48;6.63;;;;;;;10.82;100.00;101221.66;4919499;29;20043;-77
2023/04/09 01:42:56;;;;;;;9.30;6.35;;;;;;;10.97;100.00;101208.06;4919306;29;20075;-77
2023/04/09 01:45:25;;;;;;;8.80;6.70;;;;;;;10.93;100.00;101209.69;4918401;29;20052;-77
2023/04/09 01:47:54;;;;;;;8.23;6.47;;;;;;;10.99;100.00;101216.81;4902513;29;20044;-78
2023/04/09 01:50:22;;;;;;;9.32;6.50;;;;;;;10.96;100.00;101217.34;4919118;29;20067;-77
2023/04/09 01:52:50;;;;;;;9.30;7.00;;;;;;;11.05;100.00;101214.13;4902500;29;20475;-77
2023/04/09 01:55:18;;;;;;;10.38;7.28;;;;;;;11.12;100.00;101214.69;4917960;29;20055;-77
2023/04/09 01:57:46;;;;;;;10.65;6.70;;;;;;;11.08;100.00;101216.31;4919358;29;20395;-77
2023/04/09 02:00:15;;;;;;;9.27;7.03;;;;;;;11.06;100.00;101215.75;4917885;29;20044;-76
2023/04/09 02:03:04;;;;;;;10.98;6.97;;;;;;;10.93;100.00;101208.84;4918997;29;20052;-77
2023/04/09 02:05:43;;;;;;;11.15;6.22;;;;;;;11.01;100.00;101209.16;4918969;29;20056;-77
2023/04/09 02:08:18;;;;;;;8.95;6.28;;;;;;;11.02;100.00;101219.06;4918094;29;20044;-77
2023/04/09 02:10:52;;;;;;;8.27;6.05;;;;;;;11.10;100.00;101216.88;4932911;29;20395;-77
2023/04/09 02:13:22;;;;;;;9.65;6.40;;;;;;;11.10;100.00;101214.16;4920749;29;20064;-77
2023/04/09 02:15:51;;;;;;;8.00;5.70;;;;;;;11.04;100.00;101212.47;4901843;29;20058;-77
2023/04/09 02:18:27;;;;;;;8.30;5.85;;;;;;;11.11;100.00;101213.03;4918986;29;20044;-77
2023/04/09 02:20:56;;;;;;;7.57;5.78;;;;;;;10.97;100.00;101219.03;4924689;29;20048;-77
2023/04/09 02:23:25;;;;;;;7.65;5.70;;;;;;;11.00;100.00;101214.94;4937300;29;20055;-77
2023/04/09 02:25:53;;;;;;;8.77;6.30;;;;;;;11.00;100.00;101218.47;4920648;29;20409;-77
2023/04/09 02:28:21;;;;;;;9.13;5.93;;;;;;;10.90;100.00;101218.41;4937372;29;20380;-77
2023/04/09 02:30:51;;;;;;;8.30;5.20;;;;;;;10.87;100.00;101219.78;4937329;29;20471;-77
2023/04/09 02:33:19;;;;;;;8.13;5.60;;;;;;;10.94;100.00;101219.53;4936206;29;20048;-77
2023/04/09 02:35:47;;;;;;;7.50;5.03;;;;;;;10.95;100.00;101215.72;4936370;29;20051;-77
2023/04/09 02:38:15;;;;;;;8.48;5.57;;;;;;;11.00;100.00;101210.25;4920065;29;20051;-77
2023/04/09 02:40:43;;;;;;;7.65;5.55;;;;;;;11.18;99.85;101221.84;4937152;29;20044;-77
2023/04/09 02:43:11;;;;;;;7.68;5.43;;;;;;;11.27;99.83;101222.13;4936065;29;20048;-77
2023/04/09 02:45:38;;;;;;;7.60;5.80;;;;;;;11.16;100.00;101215.81;4936860;29;20051;-77
2023/04/09 02:48:06;;;;;;;7.18;5.68;;;;;;;11.31;99.33;101216.94;4937335;29;20044;-77
2023/04/09 02:50:35;;;;;;;9.43;6.00;;;;;;;11.35;100.00;101220.81;4920114;29;20051;-77
2023/04/09 02:53:03;;;;;;;8.27;5.82;;;;;;;11.38;100.00;101212.03;4936182;29;20051;-77
2023/04/09 02:55:31;;;;;;;6.88;5.38;;;;;;;11.31;100.00;101216.94;4935335;29;20052;-77
2023/04/09 02:57:59;;;;;;;8.32;5.60;;;;;;;11.25;100.00;101213.38;4935928;29;20058;-77
2023/04/09 03:00:27;;;;;;;6.75;5.50;;;;;;;11.20;100.00;101216.09;4935533;29;20039;-77
2023/04/09 03:02:56;;;;;;;8.30;6.03;;;;;;;11.23;100.00;101213.63;4935339;29;20043;-77
2023/04/09 03:05:24;;;;;;;11.13;5.88;;;;;;;11.18;100.00;101210.06;4935065;29;20058;-77
2023/04/09 03:07:53;;;;;;;13.00;6.15;;;;;;;11.22;100.00;101214.72;4919732;29;20495;-77
2023/04/09 03:10:21;;;;;;;7.55;5.95;;;;;;;11.19;100.00;101209.78;4936866;29;20048;-77
2023/04/09 03:12:49;;;;;;;8.85;5.40;;;;;;;11.18;100.00;101212.81;4935757;29;20520;-77
2023/04/09 03:15:17;;;;;;;9.38;5.68;;;;;;;11.19;100.00;101215.25;4936485;29;20383;-77
2023/04/09 03:17:45;;;;;;;6.65;5.10;;;;;;;11.29;100.00;101217.19;4935257;29;20054;-77
2023/04/09 03:20:13;;;;;;;6.78;4.97;;;;;;;11.27;100.00;101222.13;4936673;29;20047;-76
2023/04/09 03:22:41;;;;;;;6.97;5.10;;;;;;;11.35;100.00;101223.53;4935425;29;20411;-77
2023/04/09 03:25:24;;;;;;;9.00;5.25;;;;;;;11.19;100.00;101220.72;4927412;29;20051;-77
2023/04/09 03:27:54;;;;;;;8.48;5.40;;;;;;;11.02;100.00;101221.78;4935510;29;20062;-77
2023/04/09 03:30:34;;;;;;;8.32;6.20;;;;;;;10.89;100.00;101206.66;4928884;29;20522;-77
2023/04/09 03:33:04;;;;;;;8.27;6.00;;;;;;;10.87;100.00;101219.78;4935093;29;20054;-77
2023/04/09 03:35:36;;;;;;;8.45;5.85;;;;;;;10.64;100.00;101212.81;4934998;29;20051;-77
2023/04/09 03:38:04;;;;;;;9.25;6.15;;;;;;;10.70;100.00;101216.41;4934920;29;20040;-77
2023/04/09 03:40:32;;;;;;;8.48;6.15;;;;;;;10.82;100.00;101218.94;4936183;29;20048;-77
2023/04/09 03:43:00;;;;;;;7.82;6.22;;;;;;;10.88;100.00;101221.44;4934764;29;20052;-76
2023/04/09 03:45:28;;;;;;;8.90;6.10;;;;;;;10.85;100.00;101213.75;4934848;29;20048;-76
2023/04/09 03:48:09;;;;;;;8.55;6.45;;;;;;;10.87;100.00;101200.59;4919151;29;20048;-77
2023/04/09 03:50:40;;;;;;;8.80;6.22;;;;;;;10.94;100.00;101207.78;4934551;29;20047;-77
2023/04/09 03:53:12;;;;;;;7.40;6.00;;;;;;;10.92;100.00;101212.69;4934547;29;20047;-77
2023/04/09 03:55:40;;;;;;;7.07;5.70;;;;;;;10.89;100.00;101212.13;4933992;29;20044;-77
2023/04/09 03:58:16;;;;;;;9.90;6.20;;;;;;;10.88;100.00;101209.66;4934550;29;20051;-77
2023/04/09 04:00:44;;;;;;;8.45;5.72;;;;;;;10.86;100.00;101214.59;4935958;29;20506;-77
2023/04/09 04:03:31;;;;;;;8.20;6.07;;;;;;;10.89;100.00;101212.13;4918449;29;20052;-77
2023/04/09 04:06:10;;;;;;;8.32;5.57;;;;;;;10.94;100.00;101214.06;4934033;29;20058;-77
2023/04/09 04:09:00;;;;;;;8.40;6.28;;;;;;;11.05;100.00;101214.13;4935195;29;20056;-76
2023/04/09 04:11:38;;;;;;;11.40;6.25;;;;;;;11.02;100.00;101216.31;4934520;29;20040;-76
2023/04/09 04:14:06;;;;;;;9.57;5.72;;;;;;;11.00;100.00;101218.47;4928762;29;20044;-77
2023/04/09 04:16:34;;;;;;;7.95;5.78;;;;;;;10.90;100.00;101215.69;4915403;29;20063;-77
2023/04/09 04:19:04;;;;;;;7.25;5.53;;;;;;;10.83;100.00;101213.19;4915197;29;20036;-77
2023/04/09 04:21:38;;;;;;;6.80;5.50;;;;;;;10.91;100.00;101220.09;4915356;29;20051;-77
2023/04/09 04:24:06;;;;;;;6.53;5.55;;;;;;;10.95;100.00;101215.72;4916056;29;20045;-77
2023/04/09 04:26:34;;;;;;;6.57;5.40;;;;;;;10.86;100.00;101222.81;4915351;29;20052;-77
2023/04/09 04:29:02;;;;;;;6.32;5.15;;;;;;;10.99;100.00;101216.81;4899544;29;20059;-77
2023/04/09 04:31:50;;;;;;;5.32;4.53;;;;;;;10.93;100.00;101228.00;4916141;29;20059;-77
2023/04/09 04:34:21;;;;;;;7.68;5.40;;;;;;;10.75;100.00;101233.69;4915254;29;20508;-77
2023/04/09 04:36:57;;;;;;;6.30;5.07;;;;;;;10.78;100.00;101232.34;4915367;29;20048;-77
2023/04/09 04:39:30;;;;;;;6.03;5.18;;;;;;;10.81;100.00;101228.25;4915273;29;20052;-77
2023/04/09 04:42:09;;;;;;;4.97;4.13;;;;;;;10.85;100.00;101238.38;4914900;29;20059;-77
2023/04/09 04:44:37;;;;;;;7.88;4.93;;;;;;;10.80;100.00;101235.63;4914953;29;20074;-77
2023/04/09 04:47:14;;;;;;;6.50;5.22;;;;;;;10.66;100.00;101231.72;4915234;29;20048;-77
2023/04/09 04:49:42;;;;;;;7.97;5.32;;;;;;;10.64;100.00;101236.66;4899397;29;20583;-77
2023/04/09 04:52:10;;;;;;;7.05;4.95;;;;;;;10.83;100.00;101239.75;4915304;29;20052;-77
2023/04/09 04:54:42;;;;;;;9.23;5.47;;;;;;;10.91;100.00;101244.72;4914970;29;20408;-75
2023/04/09 04:57:15;;;;;;;7.00;6.13;;;;;;;10.84;100.00;101244.13;4899443;29;20407;-77
2023/04/09 04:59:43;;;;;;;7.85;5.20;;;;;;;10.70;99.92;101247.34;4914330;29;20531;-77
2023/04/09 05:02:13;;;;;;;7.30;5.40;;;;;;;10.83;97.64;101242.47;4914733;29;20044;-78
2023/04/09 05:04:52;;;;;;;8.20;5.72;;;;;;;11.00;95.66;101239.56;4916268;29;20063;-77
2023/04/09 05:07:27;;;;;;;8.40;5.30;;;;;;;10.90;96.45;101251.28;4930064;29;20048;-76
2023/04/09 05:09:56;;;;;;;9.85;5.95;;;;;;;10.75;93.76;101260.22;4920490;29;20044;-76
2023/04/09 05:12:25;;;;;;;7.63;5.47;;;;;;;10.98;94.57;101252.69;4900000;29;20399;-76
2023/04/09 05:14:53;;;;;;;7.45;5.28;;;;;;;11.05;91.74;101255.19;4912391;29;20059;-75
2023/04/09 05:17:21;;;;;;;7.00;5.30;;;;;;;11.05;94.07;101252.47;4917494;29;20510;-75
2023/04/09 05:19:52;;;;;;;8.60;5.85;;;;;;;11.18;91.14;101260.19;4919266;29;20048;-76
2023/04/09 05:22:27;;;;;;;7.88;5.38;;;;;;;11.24;94.91;101261.84;4910435;29;20502;-76
2023/04/09 05:24:55;;;;;;;6.78;5.03;;;;;;;11.15;90.99;101266.22;4902251;29;20048;-76
2023/04/09 05:27:24;;;;;;;11.52;6.05;;;;;;;11.05;86.84;101263.41;4918203;29;20059;-77
2023/04/09 05:29:57;;;;;;;8.75;5.60;;;;;;;11.05;86.74;101264.22;4917999;29;20044;-75
2023/04/09 05:32:27;;;;;;;8.18;6.28;;;;;;;11.02;87.06;101265.59;4901918;29;20048;-76
2023/04/09 05:34:56;;;;;;;8.18;5.95;;;;;;;11.13;86.95;101265.63;4919062;29;20040;-76
2023/04/09 05:37:25;;;;;;;9.77;6.85;;;;;;;11.08;87.12;101268.34;4917660;29;20052;-76
2023/04/09 05:39:53;;;;;;;10.10;6.13;;;;;;;11.14;86.23;101270.84;4918028;29;20372;-76
2023/04/09 05:42:21;;;;;;;11.95;7.30;;;;;;;11.00;86.66;101262.28;4912620;29;20048;-76
2023/04/09 05:45:00;;;;;;;13.57;7.00;;;;;;;11.25;86.25;101271.72;4908493;29;20036;-76
2023/04/09 05:47:28;;;;;;;9.73;6.95;;;;;;;10.91;85.05;101283.06;4917039;29;20040;-76
2023/04/09 05:50:19;;;;;;;9.00;6.00;;;;;;;10.85;85.30;101279.47;4911603;29;20059;-75
2023/04/09 05:52:50;;;;;;;10.02;6.88;;;;;;;10.96;83.84;101276.78;4918208;29;20048;-76
2023/04/09 05:55:19;;;;;;;11.48;7.15;;;;;;;11.20;85.31;101277.16;4917243;29;20617;-76
2023/04/09 05:57:56;;;;;;;10.98;7.05;;;;;;;10.92;85.29;101276.50;4917074;29;20051;-75
2023/04/09 06:00:23;;;;;;;11.35;6.43;;;;;;;10.99;85.36;101288.03;4916646;29;20059;-77
2023/04/09 06:02:51;;;;;;;9.35;6.68;;;;;;;11.13;84.29;101274.69;4916274;29;20056;-75
2023/04/09 06:05:19;;;;;;;10.68;6.90;;;;;;;11.22;82.42;101280.50;4924188;29;20056;-75
2023/04/09 06:07:47;;;;;;;9.50;6.95;;;;;;;11.01;84.29;101290.50;4934456;29;20487;-75
2023/04/09 06:10:15;;;;;;;9.80;7.15;;;;;;;11.11;83.84;101284.25;4931876;29;20067;-76
2023/04/09 06:12:43;;;;;;;9.25;6.38;;;;;;;11.13;82.75;101282.91;4933694;29;20388;-76
2023/04/09 06:15:11;;;;;;;10.30;5.97;;;;;;;11.14;83.26;101300.16;4934708;29;20047;-76
2023/04/09 06:17:39;;;;;;;10.60;7.13;;;;;;;11.36;83.54;101294.53;4935732;29;20058;-76
2023/04/09 06:20:08;;;;;;;8.80;6.47;;;;;;;11.87;82.09;101295.75;4933908;29;20056;-77
2023/04/09 06:22:36;;;;;;;8.98;5.85;;;;;;;11.80;79.28;101304.28;4935967;29;20346;-77
2023/04/09 06:25:04;;;;;;;10.70;6.45;;;;;;;11.60;80.96;101306.94;4936031;29;20046;-76
2023/04/09 06:27:32;;;;;;;8.48;5.43;;;;;;;11.67;79.51;101302.00;4935650;29;20051;-75
2023/04/09 06:30:00;;;;;;;9.60;6.05;;;;;;;11.63;79.74;101307.22;4936093;29;20047;-74
2023/04/09 06:32:28;;;;;;;9.65;6.07;;;;;;;11.48;81.64;101299.75;4919014;29;20044;-74
2023/04/09 06:34:57;;;;;;;8.63;5.53;;;;;;;11.68;79.18;101304.50;4951120;29;20043;-73
2023/04/09 06:37:24;;;;;;;7.15;5.47;;;;;;;11.41;81.28;101304.69;4928641;29;20047;-73
2023/04/09 06:39:52;;;;;;;6.35;5.55;;;;;;;11.91;80.17;101313.34;4935192;29;20380;-73
2023/04/09 06:42:28;;;;;;;7.97;5.28;;;;;;;11.75;78.80;101317.97;4936127;29;20518;-73
2023/04/09 06:45:07;;;;;;;6.57;5.03;;;;;;;11.63;79.27;101314.63;4936323;29;20055;-73
2023/04/09 06:47:35;;;;;;;6.32;5.00;;;;;;;11.75;79.37;101315.22;4936083;29;20048;-73
2023/04/09 06:50:04;;;;;;;6.63;4.72;;;;;;;11.92;80.04;101314.13;4935694;29;20048;-73
2023/04/09 06:52:32;;;;;;;4.78;4.03;;;;;;;11.74;76.54;101323.72;4935747;29;20050;-73
2023/04/09 06:55:00;;;;;;;6.72;4.78;;;;;;;11.73;78.72;101327.56;4928351;29;20043;-73
2023/04/09 06:57:27;;;;;;;6.70;4.50;;;;;;;11.62;77.02;101326.66;4934397;29;20109;-73
2023/04/09 06:59:56;;;;;;;7.95;4.57;;;;;;;11.75;76.33;101331.66;4935056;29;20044;-73
2023/04/09 07:02:24;;;;;;;5.60;3.97;;;;;;;11.74;75.97;101330.03;4933801;29;20518;-73
2023/04/09 07:04:52;;;;;;;4.28;3.83;;;;;;;11.77;72.90;101328.63;4942110;28;20304;-73
2023/04/09 07:07:21;;;;;;;3.80;3.30;;;;;;;11.98;72.38;101334.19;4951781;29;20043;-73
2023/04/09 07:09:52;;;;;;;4.25;3.20;;;;;;;12.69;68.35;101334.53;4951708;29;20541;-73
2023/04/09 07:12:30;;;;;;;6.60;3.33;;;;;;;12.49;69.04;101337.03;4930914;29;20048;-74
2023/04/09 07:14:59;;;;;;;3.13;2.80;;;;;;;12.86;66.00;101339.75;4912762;29;20044;-74
2023/04/09 07:17:28;;;;;;;3.00;2.50;;;;;;;12.30;67.13;101336.75;4927350;29;20060;-73
2023/04/09 07:19:56;;;;;;;3.05;2.75;;;;;;;12.47;65.00;101341.16;4935617;29;20506;-74
2023/04/09 07:22:26;;;;;;;3.03;2.50;;;;;;;12.42;65.22;101338.41;4934393;29;20058;-73
2023/04/09 07:24:54;;;;;;;3.50;2.80;;;;;;;12.28;66.50;101343.59;4935809;29;20402;-74
2023/04/09 07:27:24;;;;;;;4.38;2.72;;;;;;;12.67;67.76;101337.59;4938744;29;20051;-73
2023/04/09 07:29:56;;;;;;;2.55;2.35;;;;;;;12.97;67.47;101346.06;4944558;29;20438;-73
2023/04/09 07:32:26;;;;;;;3.03;2.50;;;;;;;12.92;64.99;101351.56;4925255;29;20527;-74
2023/04/09 07:34:56;;;;;;;4.13;2.58;;;;;;;12.96;65.01;101336.97;4935512;29;20115;-74
2023/04/09 07:37:24;;;;;;;3.67;3.08;;;;;;;12.82;64.54;101353.22;4934649;29;20062;-74
2023/04/09 07:39:52;;;;;;;3.20;2.90;;;;;;;13.74;62.29;101356.00;4934547;29;20039;-73
2023/04/09 07:42:20;;;;;;;3.63;2.40;;;;;;;13.13;64.63;101358.66;4932437;29;20048;-74
2023/04/09 07:44:48;;;;;;;2.90;2.60;;;;;;;13.65;62.45;101357.72;4934053;29;20043;-74
2023/04/09 07:47:16;;;;;;;4.07;2.70;;;;;;;13.44;62.15;101357.75;4934021;29;20054;-74
2023/04/09 07:49:44;;;;;;;4.57;2.70;;;;;;;13.64;61.16;101361.56;4934147;29;20051;-74
2023/04/09 07:52:12;;;;;;;5.75;3.47;;;;;;;13.63;63.68;101366.22;4928049;29;20401;-83
2023/04/09 07:54:40;;;;;;;4.10;2.50;;;;;;;14.26;62.04;101369.47;4934281;29;20039;-83
2023/04/09 07:57:08;;;;;;;2.47;2.28;;;;;;;14.40;59.55;101372.41;4932557;29;20035;-84
2023/04/09 07:59:36;;;;;;;2.63;2.42;;;;;;;14.35;60.19;101369.69;4934333;29;20380;-83
2023/04/09 08:02:04;;;;;;;4.32;2.00;;;;;;;14.15;60.74;101365.97;4934700;29;20502;-84
2023/04/09 08:04:32;;;;;;;2.33;1.90;;;;;;;13.87;60.11;101370.28;4934013;29;20051;-83
2023/04/09 08:07:00;;;;;;;4.03;2.67;;;;;;;13.88;61.32;101372.72;4916438;29;20515;-83
2023/04/09 08:09:29;;;;;;;2.03;1.63;;;;;;;13.80;60.01;101370.56;4931090;29;20051;-83
2023/04/09 08:11:57;;;;;;;2.13;2.00;;;;;;;14.12;59.67;101374.78;4933392;29;20376;-82
2023/04/09 08:14:26;;;;;;;2.35;2.00;;;;;;;13.92;59.35;101373.81;4933496;29;20055;-83
2023/04/09 08:16:54;;;;;;;2.10;1.90;;;;;;;14.06;59.33;101373.16;4929759;29;20062;-83
2023/04/09 08:19:22;;;;;;;2.58;2.38;;;;;;;14.22;58.01;101377.47;4929277;29;20051;-87
2023/04/09 08:21:50;;;;;;;2.65;1.90;;;;;;;13.82;58.00;101368.34;4932794;29;20051;-85
2023/04/09 08:24:18;;;;;;;2.25;2.00;;;;;;;14.34;57.91;101387.31;4933030;29;20048;-83
2023/04/09 08:26:46;;;;;;;2.20;2.00;;;;;;;14.33;56.00;101392.00;4932467;29;20570;-83
2023/04/09 08:29:14;;;;;;;2.08;1.88;;;;;;;14.46;55.79;101384.19;4933760;29;20537;-83
2023/04/09 08:31:42;;;;;;;1.95;1.85;;;;;;;14.61;56.24;101399.78;4933116;29;20048;-83
2023/04/09 08:34:10;;;;;;;2.15;1.70;;;;;;;14.58;56.02;101400.38;4933966;29;20047;-83
2023/04/09 08:36:38;;;;;;;1.92;1.70;;;;;;;14.41;55.64;101393.31;4932201;29;20047;-83
2023/04/09 08:39:06;;;;;;;1.90;1.75;;;;;;;14.43;55.43;101398.56;4933860;29;20048;-84
2023/04/09 08:41:40;;;;;;;1.80;1.70;;;;;;;14.47;54.88;101392.19;4932778;29;20044;-82
2023/04/09 08:44:08;;;;;;;;;;;;;;;14.77;54.25;101404.09;4933620;29;20048;-83
2023/04/09 08:46:36;;;;;;;1.90;1.73;;;;;;;14.95;55.08;101392.66;4932162;29;19939;-83
2023/04/09 08:49:04;;;;;;;1.83;1.65;;;;;;;14.80;53.95;101393.63;4933326;29;20056;-83
2023/04/09 08:51:32;;;;;;;1.65;1.55;;;;;;;14.76;54.65;101391.44;4933854;29;20398;-83
2023/04/09 08:54:01;;;;;;;1.88;1.77;;;;;;;14.93;53.99;101392.94;4933840;29;20052;-81
2023/04/09 08:56:31;;;;;;;2.08;1.88;;;;;;;14.80;53.07;101383.41;4933185;29;20048;-83
2023/04/09 08:58:59;;;;;;;2.28;1.75;;;;;;;14.95;54.35;101392.66;4932713;29;20066;-81
2023/04/09 09:01:29;;;;;;;4.78;2.67;;;;;;;15.22;54.79;101383.84;4940028;29;20062;-82
2023/04/09 09:04:02;;;;;;;2.20;2.00;;;;;;;14.80;52.71;101382.59;4932738;29;20071;-82
2023/04/09 09:06:34;;;;;;;3.58;1.90;;;;;;;15.16;53.86;101382.25;4932187;29;20055;-83
2023/04/09 09:09:12;;;;;;;3.90;2.15;;;;;;;15.42;53.52;101388.31;4933907;29;20047;-83
2023/04/09 09:11:42;;;;;;;3.03;2.28;;;;;;;15.31;53.00;101384.03;4931624;29;20059;-83
2023/04/09 09:14:17;;;;;;;2.15;1.95;;;;;;;15.52;53.20;101378.28;4933921;29;20477;-83
2023/04/09 09:16:54;;;;;;;3.05;2.33;;;;;;;15.58;53.33;101386.22;4934084;29;20050;-84
2023/04/09 09:19:23;;;;;;;2.28;2.08;;;;;;;15.41;53.47;101394.94;4933761;29;20051;-83
2023/04/09 09:21:58;;;;;;;1.83;1.73;;;;;;;15.33;52.67;101390.06;4931683;29;20048;-84
2023/04/09 09:24:26;;;;;;;2.10;1.90;;;;;;;15.42;52.81;101387.50;4933099;29;20054;-84
2023/04/09 09:26:56;;;;;;;2.17;2.08;;;;;;;15.28;51.60;101393.72;4932973;29;20403;-83
2023/04/09 09:29:25;;;;;;;4.25;2.58;;;;;;;15.00;52.35;101396.19;4932657;29;20640;-83
2023/04/09 09:31:54;;;;;;;2.47;2.28;;;;;;;14.77;52.03;101387.56;4932534;29;20047;-84
2023/04/09 09:34:23;;;;;;;3.08;2.80;;;;;;;14.82;51.98;101383.97;4932747;29;20055;-83
2023/04/09 09:36:51;;;;;;;2.63;2.22;;;;;;;14.35;51.78;101384.28;4932611;29;20044;-73
2023/04/09 09:39:21;;;;;;;2.88;2.60;;;;;;;14.54;51.95;101388.28;4932239;29;20063;-77
2023/04/09 09:42:06;;;;;;;4.40;2.72;;;;;;;15.68;51.67;101388.00;4932753;29;20047;-77
2023/04/09 09:44:35;;;;;;;4.13;2.65;;;;;;;15.95;49.78;101388.53;4915271;29;20052;-77
2023/04/09 09:47:03;;;;;;;4.53;3.00;;;;;;;15.87;50.34;101389.97;4932737;29;20047;-77
2023/04/09 09:49:31;;;;;;;5.00;3.20;;;;;;;15.43;50.57;101380.84;4931025;29;20520;-78
2023/04/09 09:52:02;;;;;;;3.92;2.72;;;;;;;16.24;51.57;101382.06;4932341;29;20432;-78
2023/04/09 09:54:38;;;;;;;4.43;3.30;;;;;;;15.89;48.49;101386.94;4933803;29;20056;-79
2023/04/09 10:10:30;;;;;;;5.00;3.40;;;;;;;16.36;49.53;101387.94;5049087;28;20414;-76
2023/04/09 10:12:58;;;;;;;4.15;3.72;;;;;;;16.48;47.70;101384.72;5047719;28;20099;-76
2023/04/09 10:15:29;;;;;;;2.92;2.72;;;;;;;16.57;45.73;101386.81;5048123;28;20116;-77
2023/04/09 10:17:57;;;;;;;4.18;3.58;;;;;;;17.09;45.47;101384.00;5047758;28;20049;-77
2023/04/09 10:20:31;;;;;;;5.32;3.03;;;;;;;17.03;46.26;101380.53;5031783;28;20054;-79
2023/04/09 10:23:04;;;;;;;4.03;3.63;;;;;;;17.67;46.21;101383.72;5027404;28;20073;-78
2023/04/09 10:25:32;;;;;;;3.95;3.17;;;;;;;17.41;43.88;101385.03;5041751;28;20045;-74
2023/04/09 10:28:01;;;;;;;8.95;5.50;;;;;;;17.35;43.05;101383.50;5043224;28;20099;-74
2023/04/09 10:30:36;;;;;;;7.25;4.70;;;;;;;16.31;45.68;101376.97;5033102;28;20046;-74
2023/04/09 10:33:15;;;;;;;10.50;4.97;;;;;;;16.76;47.22;101370.16;5047973;28;20400;-75
2023/04/09 10:35:45;;;;;;;7.55;4.65;;;;;;;17.17;45.89;101374.19;5047618;28;20063;-76
2023/04/09 10:38:14;;;;;;;4.55;3.85;;;;;;;17.66;44.62;101371.00;5047504;28;20052;-76
2023/04/09 10:40:50;;;;;;;6.55;4.68;;;;;;;18.45;43.70;101371.78;5045278;28;20731;-76
2023/04/09 10:43:19;;;;;;;3.15;2.75;;;;;;;18.03;43.02;101369.09;5045914;28;20040;-75
2023/04/09 10:45:52;;;;;;;4.88;3.50;;;;;;;17.63;45.04;101375.22;5046962;28;20052;-75
2023/04/09 10:48:20;;;;;;;4.82;3.72;;;;;;;17.30;45.69;101362.31;5045736;28;20060;-76
2023/04/09 10:50:53;;;;;;;3.90;3.50;;;;;;;17.78;42.40;101364.97;5046529;28;20060;-76
2023/04/09 10:53:25;;;;;;;3.67;2.90;;;;;;;19.12;42.16;101368.44;5047526;28;20052;-75
2023/04/09 10:55:54;;;;;;;4.00;2.88;;;;;;;18.74;40.60;101362.19;5046930;28;20048;-76
2023/04/09 10:58:21;;;;;;;3.25;2.95;;;;;;;18.00;41.34;101365.00;5047402;28;20052;-76
2023/04/09 11:00:52;;;;;;;3.90;2.90;;;;;;;17.97;45.30;101368.41;5046505;28;20041;-77
2023/04/09 11:03:24;;;;;;;3.25;2.95;;;;;;;18.10;42.51;101363.16;5047597;28;20480;-76
2023/04/09 11:06:04;;;;;;;3.42;2.95;;;;;;;18.18;41.76;101356.88;5047567;28;20056;-76
2023/04/09 11:08:33;;;;;;;4.30;3.17;;;;;;;17.94;42.10;101352.41;5047229;28;20061;-77
2023/04/09 11:11:02;;;;;;;3.25;2.95;;;;;;;18.02;42.36;101352.81;5035820;28;20061;-77
2023/04/09 11:13:31;;;;;;;4.18;3.30;;;;;;;18.36;41.81;101345.94;5034189;28;20054;-76
2023/04/09 11:16:00;;;;;;;3.10;2.80;;;;;;;18.35;42.57;101338.75;5034152;28;20045;-77
2023/04/09 11:18:29;;;;;;;3.08;2.35;;;;;;;18.52;42.92;101338.03;5033973;28;20034;-76
2023/04/09 11:20:59;;;;;;;3.67;3.05;;;;;;;18.24;40.25;101341.75;5033842;28;20045;-77
2023/04/09 11:23:27;;;;;;;6.97;3.60;;;;;;;18.52;41.42;101333.34;5033969;28;20044;-76
2023/04/09 11:25:55;;;;;;;4.72;2.65;;;;;;;18.22;41.90;101341.28;5033504;28;20056;-77
2023/04/09 11:28:23;;;;;;;3.47;3.03;;;;;;;17.91;42.13;101341.13;5033809;28;20041;-77
2023/04/09 11:30:51;;;;;;;4.50;3.22;;;;;;;18.08;43.09;101335.78;5034230;28;20510;-76
2023/04/09 11:33:19;;;;;;;4.15;3.10;;;;;;;18.71;41.82;101340.63;5033749;28;20053;-76
2023/04/09 11:35:47;;;;;;;4.50;2.85;;;;;;;19.12;40.52;101341.53;5034150;28;20120;-76
2023/04/09 11:38:15;;;;;;;3.58;3.28;;;;;;;18.45;43.85;101340.44;5033496;28;20057;-76
2023/04/09 11:40:47;;;;;;;4.70;3.63;;;;;;;18.34;40.42;101334.34;5030707;28;20058;-76
2023/04/09 11:43:16;;;;;;;5.10;3.28;;;;;;;18.98;44.25;101330.50;5032918;28;20051;-77
2023/04/09 11:45:48;;;;;;;4.30;3.17;;;;;;;19.16;42.82;101336.97;5032336;28;20492;-76
2023/04/09 11:48:20;;;;;;;4.03;2.92;;;;;;;19.25;39.71;101339.75;5032145;28;20052;-77